createdAt,value
2018-09-19T00:01:05.312Z,50.41
2018-09-19T00:03:31.290Z,50.37
2018-09-19T00:05:57.284Z,50.40
2018-09-19T00:08:23.274Z,50.39
2018-09-19T00:10:49.249Z,50.40
2018-09-19T00:13:15.235Z,50.40
2018-09-19T00:15:41.214Z,50.36
2018-09-19T00:18:07.189Z,50.33
2018-09-19T00:20:33.168Z,50.35
2018-09-19T00:22:59.142Z,50.37
2018-09-19T00:25:25.123Z,50.31
2018-09-19T00:27:51.110Z,50.32
2018-09-19T00:30:17.092Z,50.32
2018-09-19T00:32:43.076Z,50.32
2018-09-19T00:35:09.116Z,50.32
2018-09-19T00:37:35.039Z,50.33
2018-09-19T00:40:01.024Z,50.31
2018-09-19T00:42:27.010Z,50.27
2018-09-19T00:44:52.983Z,50.33
2018-09-19T00:47:18.960Z,50.35
2018-09-19T00:49:44.943Z,50.31
2018-09-19T00:52:10.937Z,50.28
2018-09-19T00:54:36.937Z,50.32
2018-09-19T00:57:02.974Z,50.24
2018-09-19T00:59:28.994Z,50.30
2018-09-19T01:01:54.972Z,50.27
2018-09-19T01:04:20.947Z,50.28
2018-09-19T01:06:46.927Z,50.28
2018-09-19T01:09:12.910Z,50.28
2018-09-19T01:11:38.891Z,50.24
2018-09-19T01:14:04.950Z,50.23
2018-09-19T01:16:30.939Z,50.24
2018-09-19T01:18:56.915Z,50.24
2018-09-19T01:21:22.904Z,50.25
2018-09-19T01:23:48.889Z,50.23
2018-09-19T01:26:14.861Z,50.22
2018-09-19T01:28:40.845Z,50.21
2018-09-19T01:31:06.823Z,50.21
2018-09-19T01:33:32.810Z,50.10
2018-09-19T01:35:58.825Z,50.17
2018-09-19T01:38:24.857Z,50.15
2018-09-19T01:40:50.864Z,50.10
2018-09-19T01:43:16.832Z,50.09
2018-09-19T01:45:42.808Z,50.07
2018-09-19T01:48:08.790Z,50.03
2018-09-19T01:50:34.777Z,50.00
2018-09-19T01:53:00.767Z,50.04
2018-09-19T01:55:26.753Z,49.98
2018-09-19T01:57:52.734Z,50.00
2018-09-19T02:00:18.717Z,50.03
2018-09-19T02:02:44.693Z,50.00
2018-09-19T02:05:10.677Z,49.95
2018-09-19T02:07:36.653Z,50.00
2018-09-19T02:10:02.636Z,49.91
2018-09-19T02:12:28.653Z,50.00
2018-09-19T02:14:54.693Z,49.93
2018-09-19T02:17:20.641Z,49.99
2018-09-19T02:19:46.634Z,49.92
2018-09-19T02:22:12.631Z,49.93
2018-09-19T02:24:38.612Z,49.96
2018-09-19T02:27:04.592Z,49.93
2018-09-19T02:29:30.576Z,49.91
2018-09-19T02:31:56.554Z,49.90
2018-09-19T02:34:22.533Z,49.85
2018-09-19T02:36:48.527Z,49.88
2018-09-19T02:39:14.497Z,49.86
2018-09-19T02:41:40.483Z,49.90
2018-09-19T02:44:06.457Z,49.84
2018-09-19T02:46:32.491Z,49.81
2018-09-19T02:48:58.475Z,49.85
2018-09-19T02:51:24.460Z,49.84
2018-09-19T02:53:50.443Z,49.87
2018-09-19T02:56:16.417Z,49.82
2018-09-19T02:58:42.397Z,49.81
2018-09-19T03:01:08.395Z,49.83
2018-09-19T03:03:34.391Z,49.77
2018-09-19T03:06:00.367Z,49.77
2018-09-19T03:08:26.362Z,49.81
2018-09-19T03:10:52.347Z,49.73
2018-09-19T03:13:18.334Z,49.82
2018-09-19T03:15:44.368Z,49.77
2018-09-19T03:18:10.340Z,49.77
2018-09-19T03:20:36.325Z,49.77
2018-09-19T03:23:02.315Z,49.80
2018-09-19T03:25:28.296Z,49.68
2018-09-19T03:27:54.274Z,49.71
2018-09-19T03:30:20.310Z,49.73
2018-09-19T03:32:46.277Z,49.70
2018-09-19T03:35:12.274Z,49.67
2018-09-19T03:37:38.239Z,49.67
2018-09-19T03:40:04.228Z,49.65
2018-09-19T03:42:30.212Z,49.69
2018-09-19T03:44:56.434Z,49.65
2018-09-19T03:47:22.407Z,49.67
2018-09-19T03:49:48.436Z,49.61
2018-09-19T03:52:14.419Z,49.67
2018-09-19T03:54:40.398Z,49.67
2018-09-19T03:57:06.419Z,49.63
2018-09-19T03:59:32.430Z,49.64
2018-09-19T04:01:58.379Z,49.67
2018-09-19T04:04:24.396Z,49.65
2018-09-19T04:06:50.378Z,49.71
2018-09-19T04:09:16.348Z,49.71
2018-09-19T04:11:42.386Z,49.70
2018-09-19T04:14:08.399Z,49.69
2018-09-19T04:16:34.410Z,49.65
2018-09-19T04:19:00.371Z,49.70
2018-09-19T04:21:26.354Z,49.74
2018-09-19T04:23:52.339Z,49.68
2018-09-19T04:26:18.324Z,49.71
2018-09-19T04:28:44.321Z,49.67
2018-09-19T04:31:10.301Z,49.76
2018-09-19T04:33:36.305Z,49.72
2018-09-19T04:36:02.345Z,49.73
2018-09-19T04:38:28.333Z,49.79
2018-09-19T04:40:54.310Z,49.80
2018-09-19T04:43:20.288Z,49.87
2018-09-19T04:45:46.289Z,49.79
2018-09-19T04:48:12.274Z,49.82
2018-09-19T04:50:38.257Z,49.84
2018-09-19T04:53:04.244Z,49.89
2018-09-19T04:55:30.265Z,49.89
2018-09-19T04:57:56.328Z,49.92
2018-09-19T05:00:22.358Z,50.02
2018-09-19T05:02:48.334Z,50.03
2018-09-19T05:05:14.324Z,50.03
2018-09-19T05:07:40.320Z,50.04
2018-09-19T05:10:06.300Z,50.12
2018-09-19T05:12:32.298Z,50.07
2018-09-19T05:14:58.294Z,50.23
2018-09-19T05:17:24.275Z,50.18
2018-09-19T05:19:50.284Z,50.36
2018-09-19T05:22:16.292Z,50.43
2018-09-19T05:24:42.287Z,50.44
2018-09-19T05:27:08.267Z,50.52
2018-09-19T05:29:34.275Z,50.56
2018-09-19T05:32:00.266Z,50.57
2018-09-19T05:34:26.303Z,50.68
2018-09-19T05:36:52.314Z,50.66
2018-09-19T05:39:18.304Z,50.73
2018-09-19T05:41:44.269Z,50.71
2018-09-19T05:44:10.283Z,50.70
2018-09-19T05:46:36.317Z,50.77
2018-09-19T05:49:02.247Z,50.77
2018-09-19T05:51:28.239Z,50.78
2018-09-19T05:53:54.209Z,50.77
2018-09-19T05:56:20.203Z,50.68
2018-09-19T05:58:46.186Z,50.72
2018-09-19T06:01:12.198Z,50.84
2018-09-19T06:03:38.235Z,50.84
2018-09-19T06:06:04.161Z,50.86
2018-09-19T06:08:30.228Z,50.78
2018-09-19T06:10:56.172Z,50.76
2018-09-19T06:13:22.171Z,50.75
2018-09-19T06:15:48.160Z,50.75
2018-09-19T06:18:14.160Z,50.71
2018-09-19T06:20:40.143Z,50.69
2018-09-19T06:23:06.123Z,50.67
2018-09-19T06:25:32.108Z,50.66
2018-09-19T06:27:58.099Z,50.70
2018-09-19T06:30:24.073Z,50.66
2018-09-19T06:32:50.227Z,50.66
2018-09-19T06:35:16.149Z,50.62
2018-09-19T06:37:42.190Z,50.55
2018-09-19T06:40:08.178Z,50.04
2018-09-19T06:42:34.158Z,49.42
2018-09-19T06:45:00.134Z,50.19
2018-09-19T06:47:26.206Z,50.13
2018-09-19T06:52:40.254Z,49.79
2018-09-19T06:55:07.008Z,50.09
2018-09-19T06:57:33.882Z,50.04
2018-09-19T07:00:00.627Z,49.99
2018-09-19T07:02:27.227Z,49.93
2018-09-19T07:04:53.847Z,49.97
2018-09-19T07:07:20.919Z,49.88
2018-09-19T07:09:47.425Z,49.93
2018-09-19T07:12:14.335Z,49.84
2018-09-19T07:14:40.729Z,49.72
2018-09-19T07:17:06.718Z,49.62
2018-09-19T07:19:32.731Z,49.46
2018-09-19T07:21:58.720Z,49.68
2018-09-19T07:24:24.702Z,49.71
2018-09-19T07:26:50.676Z,49.54
2018-09-19T07:29:16.664Z,49.01
2018-09-19T07:31:42.655Z,49.71
2018-09-19T07:34:08.646Z,49.23
2018-09-19T07:36:34.633Z,47.81
2018-09-19T07:39:00.615Z,47.38
2018-09-19T07:41:26.712Z,47.38
2018-09-19T07:43:52.684Z,47.30
2018-09-19T07:46:18.716Z,47.71
2018-09-19T07:48:44.693Z,47.46
2018-09-19T07:51:10.688Z,46.54
2018-09-19T07:53:36.748Z,48.72
2018-09-19T07:56:02.783Z,48.63
2018-09-19T07:58:28.765Z,48.64
2018-09-19T08:00:54.895Z,48.71
2018-09-19T08:03:20.764Z,47.84
2018-09-19T08:05:46.736Z,47.85
2018-09-19T08:08:12.712Z,48.00
2018-09-19T08:10:38.697Z,47.96
2018-09-19T08:13:04.710Z,48.95
2018-09-19T08:15:30.683Z,48.79
2018-09-19T08:17:56.687Z,49.07
2018-09-19T08:20:22.668Z,48.28
2018-09-19T08:22:48.714Z,48.33
2018-09-19T08:25:14.709Z,49.52
2018-09-19T08:27:40.624Z,48.93
2018-09-19T08:30:06.609Z,49.42
2018-09-19T08:32:32.621Z,49.69
2018-09-19T08:34:58.633Z,49.94
2018-09-19T08:37:24.624Z,50.06
2018-09-19T08:39:50.705Z,50.14
2018-09-19T08:42:16.706Z,50.11
2018-09-19T08:44:42.705Z,49.96
2018-09-19T08:47:08.716Z,49.82
2018-09-19T08:49:34.695Z,49.82
2018-09-19T08:52:00.692Z,49.79
2018-09-19T08:54:26.728Z,49.72
2018-09-19T08:56:52.680Z,49.61
2018-09-19T08:59:18.646Z,49.53
2018-09-19T09:01:44.651Z,49.42
2018-09-19T09:04:10.643Z,49.38
2018-09-19T09:06:36.644Z,49.33
2018-09-19T09:09:02.647Z,49.33
2018-09-19T09:11:28.644Z,49.35
2018-09-19T09:13:54.643Z,49.40
2018-09-19T09:16:20.658Z,49.26
2018-09-19T09:18:46.615Z,49.32
2018-09-19T09:21:12.627Z,49.31
2018-09-19T09:23:38.620Z,49.30
2018-09-19T09:26:04.649Z,49.29
2018-09-19T09:28:30.607Z,49.29
2018-09-19T09:30:56.675Z,49.33
2018-09-19T09:33:22.614Z,49.12
2018-09-19T09:35:48.624Z,49.13
2018-09-19T09:38:14.625Z,49.21
2018-09-19T09:40:40.606Z,49.14
2018-09-19T09:43:06.647Z,49.17
2018-09-19T09:45:32.638Z,49.15
2018-09-19T09:47:58.656Z,49.26
2018-09-19T09:50:24.691Z,49.17
2018-09-19T09:52:50.668Z,49.13
2018-09-19T09:55:16.676Z,49.11
2018-09-19T09:57:42.734Z,49.08
2018-09-19T10:00:08.703Z,49.12
2018-09-19T10:02:34.716Z,49.10
2018-09-19T10:05:00.690Z,49.17
2018-09-19T10:07:26.724Z,49.18
2018-09-19T10:09:52.748Z,49.20
2018-09-19T10:12:18.714Z,49.11
2018-09-19T10:14:44.706Z,49.09
2018-09-19T10:17:10.702Z,49.07
2018-09-19T10:19:36.708Z,49.01
2018-09-19T10:22:02.715Z,49.04
2018-09-19T10:24:28.711Z,48.99
2018-09-19T10:26:54.746Z,49.03
2018-09-19T10:29:20.746Z,49.00
2018-09-19T10:31:46.719Z,48.91
2018-09-19T10:34:12.723Z,48.95
2018-09-19T10:36:38.740Z,48.83
2018-09-19T10:39:04.740Z,48.88
2018-09-19T10:41:30.728Z,48.93
2018-09-19T10:43:56.716Z,48.77
2018-09-19T10:46:22.730Z,48.88
2018-09-19T10:48:48.734Z,48.71
2018-09-19T10:51:14.755Z,48.69
2018-09-19T10:53:40.751Z,48.77
2018-09-19T10:56:06.748Z,48.69
2018-09-19T10:58:32.781Z,48.74
2018-09-19T11:00:58.777Z,48.71
2018-09-19T11:03:24.757Z,48.87
2018-09-19T11:05:50.753Z,48.72
2018-09-19T11:08:16.746Z,48.73
2018-09-19T11:10:42.775Z,48.75
2018-09-19T11:13:08.779Z,48.87
2018-09-19T11:15:34.788Z,48.88
2018-09-19T11:18:00.785Z,48.72
2018-09-19T11:20:26.788Z,48.77
2018-09-19T11:22:52.774Z,48.84
2018-09-19T11:25:18.774Z,48.69
2018-09-19T11:27:44.800Z,48.67
2018-09-19T11:30:10.818Z,48.65
2018-09-19T11:32:36.784Z,48.93
2018-09-19T11:35:02.766Z,48.78
2018-09-19T11:37:28.772Z,48.56
2018-09-19T11:39:54.772Z,48.53
2018-09-19T11:42:21.222Z,48.53
2018-09-19T11:44:55.435Z,48.50
2018-09-19T11:47:21.766Z,48.56
2018-09-19T11:49:47.643Z,48.54
2018-09-19T11:52:13.668Z,48.56
2018-09-19T11:54:39.643Z,48.44
2018-09-19T11:57:05.629Z,48.42
2018-09-19T11:59:31.637Z,48.36
2018-09-19T12:01:57.702Z,48.41
2018-09-19T12:04:23.762Z,48.39
2018-09-19T12:06:49.714Z,48.56
2018-09-19T12:09:15.758Z,48.44
2018-09-19T12:11:41.754Z,48.74
2018-09-19T12:14:07.750Z,48.40
2018-09-19T12:16:33.739Z,48.29
2018-09-19T12:18:59.718Z,48.39
2018-09-19T12:21:25.697Z,48.51
2018-09-19T12:23:51.714Z,48.35
2018-09-19T12:26:17.849Z,48.24
2018-09-19T12:28:43.795Z,48.34
2018-09-19T12:31:09.776Z,48.38
2018-09-19T12:33:35.754Z,48.28
2018-09-19T12:36:01.887Z,48.24
2018-09-19T12:38:27.844Z,48.07
2018-09-19T12:40:53.835Z,48.10
2018-09-19T12:43:19.862Z,48.23
2018-09-19T12:45:45.845Z,48.11
2018-09-19T12:48:11.836Z,48.22
2018-09-19T12:50:37.833Z,48.11
2018-09-19T12:53:03.838Z,48.03
2018-09-19T12:55:29.848Z,48.11
2018-09-19T12:57:55.820Z,48.15
2018-09-19T13:00:21.856Z,48.02
2018-09-19T13:02:47.797Z,47.99
2018-09-19T13:05:13.798Z,48.01
2018-09-19T13:07:39.790Z,47.82
2018-09-19T13:10:10.928Z,47.93
2018-09-19T13:12:36.924Z,47.90
2018-09-19T13:15:02.935Z,47.88
2018-09-19T13:17:28.931Z,47.79
2018-09-19T13:19:54.965Z,47.80
2018-09-19T13:22:20.954Z,47.79
2018-09-19T13:24:47.137Z,47.80
2018-09-19T13:27:13.155Z,47.83
2018-09-19T13:29:39.148Z,47.71
2018-09-19T13:32:05.199Z,47.67
2018-09-19T13:34:31.177Z,47.65
2018-09-19T13:36:57.180Z,47.56
2018-09-19T13:39:23.185Z,47.62
2018-09-19T13:41:49.190Z,47.60
2018-09-19T13:44:15.160Z,47.59
2018-09-19T13:46:41.172Z,47.65
2018-09-19T13:49:07.187Z,47.64
2018-09-19T13:51:33.181Z,47.88
2018-09-19T13:53:59.167Z,47.85
2018-09-19T13:56:25.165Z,47.87
2018-09-19T13:58:51.204Z,47.98
2018-09-19T14:01:17.157Z,48.20
2018-09-19T14:03:43.165Z,48.31
2018-09-19T14:06:09.183Z,48.43
2018-09-19T14:08:35.161Z,48.76
2018-09-19T14:11:01.173Z,48.92
2018-09-19T14:13:27.172Z,48.90
2018-09-19T14:15:53.183Z,48.98
2018-09-19T14:18:19.187Z,49.06
2018-09-19T14:20:45.191Z,49.27
2018-09-19T14:23:11.195Z,49.18
2018-09-19T14:25:37.200Z,49.14
2018-09-19T14:28:03.174Z,49.00
2018-09-19T14:30:29.161Z,48.89
2018-09-19T14:32:55.147Z,48.85
2018-09-19T14:35:21.140Z,48.89
2018-09-19T14:37:47.229Z,48.89
2018-09-19T14:40:13.202Z,48.92
2018-09-19T14:42:39.188Z,48.97
2018-09-19T14:45:05.178Z,49.08
2018-09-19T14:47:31.170Z,48.98
2018-09-19T14:49:57.130Z,48.99
2018-09-19T14:52:23.143Z,49.07
2018-09-19T14:54:49.128Z,49.06
2018-09-19T14:57:15.128Z,49.11
2018-09-19T14:59:41.168Z,49.19
2018-09-19T15:02:07.160Z,49.57
2018-09-19T15:04:33.161Z,49.86
2018-09-19T15:06:59.148Z,49.97
2018-09-19T15:09:25.126Z,50.03
2018-09-19T15:11:51.126Z,50.00
2018-09-19T15:14:17.142Z,49.87
2018-09-19T15:16:43.275Z,49.88
2018-09-19T15:19:09.268Z,49.90
2018-09-19T15:21:35.321Z,49.85
2018-09-19T15:24:01.312Z,49.95
2018-09-19T15:26:27.388Z,50.23
2018-09-19T15:28:53.392Z,50.59
2018-09-19T15:31:19.404Z,50.41
2018-09-19T15:33:45.377Z,50.39
2018-09-19T15:36:11.456Z,50.36
2018-09-19T15:38:37.388Z,50.25
2018-09-19T15:41:03.359Z,50.20
2018-09-19T15:43:29.389Z,50.14
2018-09-19T15:45:55.384Z,50.05
2018-09-19T15:48:21.393Z,50.07
2018-09-19T15:50:47.362Z,50.00
2018-09-19T15:53:13.347Z,50.09
2018-09-19T15:55:39.384Z,50.11
2018-09-19T15:58:05.310Z,49.95
2018-09-19T16:00:31.354Z,49.73
2018-09-19T16:02:57.294Z,48.35
2018-09-19T16:05:23.280Z,48.07
2018-09-19T16:07:49.282Z,47.54
2018-09-19T16:10:15.322Z,47.32
2018-09-19T16:12:41.293Z,47.01
2018-09-19T16:15:07.354Z,46.98
2018-09-19T16:17:33.373Z,48.07
2018-09-19T16:19:59.434Z,47.72
2018-09-19T16:22:25.424Z,47.85
2018-09-19T16:24:51.434Z,48.13
2018-09-19T16:27:17.409Z,48.17
2018-09-19T16:29:43.484Z,47.54
2018-09-19T16:32:09.452Z,48.12
2018-09-19T16:34:35.476Z,48.37
2018-09-19T16:37:01.421Z,48.33
2018-09-19T16:39:27.439Z,48.42
2018-09-19T16:41:53.455Z,48.46
2018-09-19T16:44:19.436Z,48.73
2018-09-19T16:46:45.417Z,48.86
2018-09-19T16:49:11.423Z,49.10
2018-09-19T16:51:37.417Z,49.03
2018-09-19T16:54:05.885Z,49.10
2018-09-19T16:56:31.893Z,49.02
2018-09-19T16:58:57.899Z,48.92
2018-09-19T17:01:23.892Z,49.08
2018-09-19T17:03:49.871Z,49.18
2018-09-19T17:06:16.303Z,49.07
2018-09-19T17:08:42.807Z,49.13
2018-09-19T17:11:08.778Z,49.04
2018-09-19T17:13:34.808Z,49.13
2018-09-19T17:16:00.885Z,49.13
2018-09-19T17:18:26.959Z,49.21
2018-09-19T17:20:53.012Z,49.16
2018-09-19T17:23:19.064Z,48.91
2018-09-19T17:25:45.058Z,48.83
2018-09-19T17:28:11.033Z,48.91
2018-09-19T17:30:37.031Z,48.91
2018-09-19T17:33:03.024Z,48.90
2018-09-19T17:35:29.046Z,48.89
2018-09-19T17:37:54.996Z,48.70
2018-09-19T17:40:21.013Z,48.90
2018-09-19T17:42:46.998Z,48.87
2018-09-19T17:45:12.979Z,48.76
2018-09-19T17:47:38.981Z,48.79
2018-09-19T17:50:04.961Z,48.63
2018-09-19T17:52:30.943Z,48.60
2018-09-19T17:54:56.930Z,48.64
2018-09-19T17:57:22.911Z,48.61
2018-09-19T17:59:48.905Z,48.53
2018-09-19T18:02:14.915Z,48.51
2018-09-19T18:04:40.860Z,48.61
2018-09-19T18:07:06.847Z,48.85
2018-09-19T18:09:32.829Z,48.85
2018-09-19T18:11:58.813Z,48.61
2018-09-19T18:14:24.810Z,48.61
2018-09-19T18:16:50.800Z,48.62
2018-09-19T18:19:24.445Z,48.53
2018-09-19T18:21:51.890Z,48.69
2018-09-19T18:24:17.886Z,48.78
2018-09-19T18:26:43.885Z,48.72
2018-09-19T18:29:11.583Z,48.41
2018-09-19T18:31:37.570Z,48.75
2018-09-19T18:34:03.646Z,48.71
2018-09-19T18:36:29.638Z,48.71
2018-09-19T18:38:56.849Z,48.77
2018-09-19T18:41:22.842Z,48.68
2018-09-19T18:43:48.890Z,48.76
2018-09-19T18:46:14.860Z,48.64
2018-09-19T18:48:40.853Z,48.56
2018-09-19T18:51:26.512Z,48.53
2018-09-19T18:53:52.357Z,48.34
2018-09-19T18:56:18.378Z,48.33
2018-09-19T18:58:44.407Z,48.28
2018-09-19T19:01:10.348Z,48.15
2018-09-19T19:03:36.328Z,48.29
2018-09-19T19:06:02.333Z,48.13
2018-09-19T19:08:28.702Z,48.14
2018-09-19T19:10:54.669Z,47.89
2018-09-19T19:13:23.577Z,48.08
2018-09-19T19:15:49.555Z,48.00
2018-09-19T19:18:15.533Z,48.05
2018-09-19T19:20:41.532Z,48.10
2018-09-19T19:23:07.517Z,48.11
2018-09-19T19:25:33.499Z,48.15
2018-09-19T19:27:59.551Z,48.21
2018-09-19T19:30:25.635Z,48.19
2018-09-19T19:32:52.282Z,48.22
2018-09-19T19:35:18.290Z,48.29
2018-09-19T19:37:44.321Z,48.38
2018-09-19T19:40:10.260Z,48.30
2018-09-19T19:42:36.244Z,48.38
2018-09-19T19:45:02.273Z,48.37
2018-09-19T19:47:28.269Z,48.47
2018-09-19T19:49:54.249Z,48.42
2018-09-19T19:52:20.229Z,48.41
2018-09-19T19:54:52.076Z,48.48
2018-09-19T19:57:18.047Z,48.50
2018-09-19T19:59:44.599Z,48.47
2018-09-19T20:02:11.239Z,48.53
2018-09-19T20:04:40.150Z,48.52
2018-09-19T20:07:06.123Z,48.53
2018-09-19T20:09:32.132Z,48.60
2018-09-19T20:11:58.505Z,48.63
2018-09-19T20:14:24.530Z,48.70
2018-09-19T20:16:50.482Z,48.82
2018-09-19T20:19:16.990Z,48.84
2018-09-19T20:21:42.980Z,48.89
2018-09-19T20:24:08.978Z,48.92
2018-09-19T20:26:35.270Z,48.94
2018-09-19T20:29:01.504Z,48.97
2018-09-19T20:31:27.494Z,49.00
2018-09-19T20:33:53.473Z,49.08
2018-09-19T20:36:22.790Z,49.06
2018-09-19T20:38:48.756Z,49.10
2018-09-19T20:41:14.798Z,49.16
2018-09-19T20:43:40.717Z,49.12
2018-09-19T20:46:06.717Z,49.19
2018-09-19T20:48:32.707Z,49.22
2018-09-19T20:50:58.704Z,49.23
2018-09-19T20:53:24.701Z,49.31
2018-09-19T20:55:50.701Z,49.27
2018-09-19T20:58:16.703Z,49.31
2018-09-19T21:00:45.501Z,49.32
2018-09-19T21:03:11.503Z,49.35
2018-09-19T21:05:37.523Z,49.33
2018-09-19T21:08:03.502Z,49.39
2018-09-19T21:10:29.500Z,49.39
2018-09-19T21:12:55.500Z,49.40
2018-09-19T21:15:21.505Z,49.40
2018-09-19T21:17:48.157Z,49.41
2018-09-19T21:20:14.151Z,49.43
2018-09-19T21:22:40.317Z,49.41
2018-09-19T21:25:06.291Z,49.42
2018-09-19T21:27:32.379Z,49.45
2018-09-19T21:29:58.323Z,49.47
2018-09-19T21:32:24.414Z,49.52
2018-09-19T21:34:50.377Z,49.43
2018-09-19T21:37:16.385Z,49.45
2018-09-19T21:39:42.391Z,49.45
2018-09-19T21:42:08.366Z,49.46
2018-09-19T21:44:34.376Z,49.46
2018-09-19T21:47:00.373Z,49.48
2018-09-19T21:49:26.379Z,49.44
2018-09-19T21:51:52.378Z,49.45
2018-09-19T21:54:18.367Z,49.46
2018-09-19T21:56:44.352Z,49.47
2018-09-19T21:59:10.335Z,49.46
2018-09-19T22:01:36.322Z,49.45
2018-09-19T22:04:02.305Z,49.47
2018-09-19T22:06:28.278Z,49.43
2018-09-19T22:08:54.257Z,49.44
2018-09-19T22:11:20.245Z,49.48
2018-09-19T22:13:46.231Z,49.43
2018-09-19T22:16:12.224Z,49.44
2018-09-19T22:18:38.216Z,49.42
2018-09-19T22:21:04.196Z,49.43
2018-09-19T22:23:30.180Z,49.46
2018-09-19T22:25:56.177Z,49.45
2018-09-19T22:28:22.162Z,49.45
2018-09-19T22:30:48.143Z,49.44
2018-09-19T22:33:14.125Z,49.42
2018-09-19T22:35:40.107Z,49.41
2018-09-19T22:38:06.100Z,49.39
2018-09-19T22:40:32.075Z,49.43
2018-09-19T22:42:58.056Z,49.43
2018-09-19T22:45:24.041Z,49.46
2018-09-19T22:47:50.028Z,49.43
2018-09-19T22:50:16.011Z,49.39
2018-09-19T22:52:41.990Z,49.34
2018-09-19T22:55:07.979Z,49.32
2018-09-19T22:57:33.980Z,49.28
2018-09-19T22:59:59.958Z,49.24
2018-09-19T23:02:26.074Z,49.24
2018-09-19T23:04:52.051Z,49.20
2018-09-19T23:07:18.041Z,49.16
2018-09-19T23:09:44.026Z,49.13
2018-09-19T23:12:10.012Z,49.12
2018-09-19T23:14:35.993Z,49.16
2018-09-19T23:17:01.975Z,49.04
2018-09-19T23:19:27.952Z,49.04
2018-09-19T23:21:53.926Z,48.99
2018-09-19T23:24:19.917Z,49.00
2018-09-19T23:26:45.917Z,48.96
2018-09-19T23:29:11.896Z,49.03
2018-09-19T23:31:37.877Z,48.91
2018-09-19T23:34:03.858Z,48.82
2018-09-19T23:36:29.849Z,48.82
2018-09-19T23:38:55.832Z,48.76
2018-09-19T23:41:21.862Z,48.84
2018-09-19T23:43:47.842Z,48.73
2018-09-19T23:46:13.821Z,48.79
2018-09-19T23:48:39.793Z,48.79
2018-09-19T23:51:05.778Z,48.80
2018-09-19T23:53:31.799Z,48.70
2018-09-19T23:55:57.750Z,48.78
2018-09-19T23:58:23.724Z,48.62
